createdAt,value
2016-05-01T00:00:04.244Z,101453
2016-05-01T00:00:16.791Z,101444
2016-05-01T00:00:29.325Z,101450
2016-05-01T00:00:42.012Z,101456
2016-05-01T00:01:46.640Z,101453
2016-05-01T00:01:59.218Z,101459
2016-05-01T00:02:11.906Z,101456
2016-05-01T00:02:24.408Z,101453
2016-05-01T00:02:36.986Z,101459
2016-05-01T00:02:49.627Z,101453
2016-05-01T00:03:02.127Z,101453
2016-05-01T00:03:14.611Z,101465
2016-05-01T00:03:27.270Z,101456
2016-05-01T00:03:39.802Z,101459
2016-05-01T00:03:52.223Z,101465
2016-05-01T00:04:04.677Z,101453
2016-05-01T00:04:17.380Z,101462
2016-05-01T00:04:29.944Z,101462
2016-05-01T00:04:42.444Z,101462
2016-05-01T00:04:55.944Z,101452
2016-05-01T00:05:09.850Z,101452
2016-05-01T00:05:24.136Z,101453
2016-05-01T00:05:38.042Z,101462
2016-05-01T00:05:50.589Z,101456
2016-05-01T00:06:03.089Z,101456
2016-05-01T00:06:15.651Z,101465
2016-05-01T00:06:28.076Z,101456
2016-05-01T00:06:40.670Z,101449
2016-05-01T00:06:53.279Z,101452
2016-05-01T00:07:05.764Z,101452
2016-05-01T00:07:18.420Z,101452
2016-05-01T00:07:31.015Z,101455
2016-05-01T00:07:43.499Z,101455
2016-05-01T00:07:56.077Z,101459
2016-05-01T00:08:08.733Z,101449
2016-05-01T00:08:21.081Z,101462
2016-05-01T00:08:33.612Z,101456
2016-05-01T00:09:44.224Z,101462
2016-05-01T00:09:56.614Z,101452
2016-05-01T00:10:09.255Z,101468
2016-05-01T00:10:21.789Z,101480
2016-05-01T00:10:34.258Z,101459
2016-05-01T00:10:46.930Z,101468
2016-05-01T00:10:59.492Z,101455
2016-05-01T00:13:06.326Z,101480
2016-05-01T00:13:19.029Z,101474
2016-05-01T00:13:31.579Z,101464
2016-05-01T00:13:44.047Z,101452
2016-05-01T00:13:56.688Z,101467
2016-05-01T00:15:08.988Z,101470
2016-05-01T00:15:21.474Z,101476
2016-05-01T00:15:34.177Z,101461
2016-05-01T00:15:46.677Z,101476
2016-05-01T00:15:59.240Z,101464
2016-05-01T00:16:11.880Z,101476
2016-05-01T00:17:16.758Z,101470
2016-05-01T00:18:26.529Z,101467
2016-05-01T00:19:36.673Z,101467
2016-05-01T00:19:49.157Z,101476
2016-05-01T00:20:02.907Z,101476
2016-05-01T00:20:16.610Z,101464
2016-05-01T00:20:32.332Z,101461
2016-05-01T00:20:45.535Z,101461
2016-05-01T00:20:58.144Z,101467
2016-05-01T00:21:10.660Z,101461
2016-05-01T00:22:19.115Z,101473
2016-05-01T00:22:32.228Z,101461
2016-05-01T00:22:44.931Z,101479
2016-05-01T00:22:57.665Z,101461
2016-05-01T00:24:06.448Z,101467
2016-05-01T00:26:11.689Z,101464
2016-05-01T00:26:24.395Z,101464
2016-05-01T00:26:36.864Z,101463
2016-05-01T00:26:49.426Z,101476
2016-05-01T00:27:02.067Z,101463
2016-05-01T00:28:11.616Z,101463
2016-05-01T00:29:16.400Z,101466
2016-05-01T00:29:28.872Z,101466
2016-05-01T00:29:41.465Z,101469
2016-05-01T00:29:53.950Z,101469
2016-05-01T00:30:06.434Z,101457
2016-05-01T00:30:19.028Z,101482
2016-05-01T00:30:31.687Z,101460
2016-05-01T00:30:44.156Z,101466
2016-05-01T00:30:56.750Z,101469
2016-05-01T00:31:09.328Z,101479
2016-05-01T00:31:21.815Z,101479
2016-05-01T00:32:26.645Z,101479
2016-05-01T00:32:39.270Z,101469
2016-05-01T00:32:51.833Z,101475
2016-05-01T00:33:04.270Z,101478
2016-05-01T00:33:16.848Z,101472
2016-05-01T00:33:29.508Z,101472
2016-05-01T00:33:42.008Z,101472
2016-05-01T00:33:54.554Z,101475
2016-05-01T00:34:07.226Z,101457
2016-05-01T00:34:19.695Z,101466
2016-05-01T00:34:32.214Z,101479
2016-05-01T00:34:45.354Z,101466
2016-05-01T00:34:59.776Z,101469
2016-05-01T00:35:12.401Z,101466
2016-05-01T00:35:24.825Z,101466
2016-05-01T00:35:38.403Z,101472
2016-05-01T00:35:51.653Z,101475
2016-05-01T00:36:04.059Z,101479
2016-05-01T00:36:16.653Z,101472
2016-05-01T00:36:29.250Z,101479
2016-05-01T00:36:41.719Z,101469
2016-05-01T00:36:54.312Z,101472
2016-05-01T00:37:06.937Z,101479
2016-05-01T00:37:19.406Z,101475
2016-05-01T00:37:32.064Z,101469
2016-05-01T00:37:44.721Z,101469
2016-05-01T00:37:57.268Z,101485
2016-05-01T00:38:09.736Z,101469
2016-05-01T00:38:22.317Z,101454
2016-05-01T00:38:34.927Z,101463
2016-05-01T00:38:48.021Z,101472
2016-05-01T00:39:00.489Z,101463
2016-05-01T00:40:06.727Z,101469
2016-05-01T00:40:19.164Z,101466
2016-05-01T00:40:31.761Z,101469
2016-05-01T00:40:44.417Z,101469
2016-05-01T00:40:56.886Z,101472
2016-05-01T00:41:09.355Z,101481
2016-05-01T00:41:21.982Z,101478
2016-05-01T00:43:29.035Z,101472
2016-05-01T00:43:41.597Z,101472
2016-05-01T00:43:54.081Z,101456
2016-05-01T00:44:06.816Z,101469
2016-05-01T00:44:19.410Z,101469
2016-05-01T00:44:31.912Z,101459
2016-05-01T00:45:44.305Z,101469
2016-05-01T00:45:56.899Z,101466
2016-05-01T00:46:09.336Z,101472
2016-05-01T00:46:21.917Z,101466
2016-05-01T00:46:34.573Z,101472
2016-05-01T00:46:47.026Z,101475
2016-05-01T00:48:49.063Z,101472
2016-05-01T00:49:01.516Z,101472
2016-05-01T00:50:14.393Z,101472
2016-05-01T00:50:28.224Z,101466
2016-05-01T00:50:40.459Z,101466
2016-05-01T00:50:53.037Z,101466
2016-05-01T00:51:05.662Z,101472
2016-05-01T00:51:18.146Z,101459
2016-05-01T00:51:30.665Z,101475
2016-05-01T00:52:36.699Z,101465
2016-05-01T00:52:49.262Z,101469
2016-05-01T00:53:01.730Z,101475
2016-05-01T00:53:14.387Z,101469
2016-05-01T00:54:26.532Z,101469
2016-05-01T00:54:39.626Z,101462
2016-05-01T00:54:52.032Z,101475
2016-05-01T00:55:04.579Z,101459
2016-05-01T00:55:17.251Z,101472
2016-05-01T00:55:29.645Z,101465
2016-05-01T00:55:42.207Z,101472
2016-05-01T00:55:54.895Z,101465
2016-05-01T00:56:07.363Z,101462
2016-05-01T00:56:19.832Z,101481
2016-05-01T00:56:32.523Z,101465
2016-05-01T00:56:45.038Z,101468
2016-05-01T00:56:57.507Z,101465
2016-05-01T00:57:09.929Z,101471
2016-05-01T00:57:22.557Z,101465
2016-05-01T00:57:35.135Z,101465
2016-05-01T00:57:47.526Z,101468
2016-05-01T00:58:00.182Z,101471
2016-05-01T00:58:12.776Z,101471
2016-05-01T00:58:25.075Z,101468
2016-05-01T00:58:37.700Z,101471
2016-05-01T00:58:50.231Z,101474
2016-05-01T00:59:02.621Z,101474
2016-05-01T00:59:15.637Z,101468
2016-05-01T00:59:28.031Z,101471
2016-05-01T00:59:40.624Z,101471
2016-05-01T00:59:53.218Z,101471
2016-05-01T01:00:05.578Z,101468
2016-05-01T01:00:18.171Z,101471
2016-05-01T01:00:30.767Z,101471
2016-05-01T01:00:43.173Z,101474
2016-05-01T01:00:55.673Z,101481
2016-05-01T01:01:08.345Z,101474
2016-05-01T01:01:20.783Z,101474
2016-05-01T01:01:33.270Z,101481
2016-05-01T01:01:45.926Z,101477
2016-05-01T01:01:58.395Z,101477
2016-05-01T01:02:10.973Z,101480
2016-05-01T01:02:23.492Z,101477
2016-05-01T01:02:35.804Z,101471
2016-05-01T01:02:48.398Z,101483
2016-05-01T01:03:01.007Z,101483
2016-05-01T01:03:13.414Z,101480
2016-05-01T01:03:26.041Z,101480
2016-05-01T01:03:38.697Z,101468
2016-05-01T01:03:51.103Z,101483
2016-05-01T01:04:03.603Z,101486
2016-05-01T01:04:16.228Z,101493
2016-05-01T01:04:28.700Z,101477
2016-05-01T01:04:41.169Z,101480
2016-05-01T01:04:54.434Z,101483
2016-05-01T01:05:09.778Z,101477
2016-05-01T01:05:25.343Z,101489
2016-05-01T01:05:39.014Z,101486
2016-05-01T01:05:51.639Z,101480
2016-05-01T01:06:04.171Z,101489
2016-05-01T01:06:16.577Z,101489
2016-05-01T01:06:29.221Z,101483
2016-05-01T01:06:41.814Z,101495
2016-05-01T01:06:54.236Z,101492
2016-05-01T01:07:07.471Z,101486
2016-05-01T01:07:20.080Z,101489
2016-05-01T01:07:32.552Z,101489
2016-05-01T01:07:45.177Z,101477
2016-05-01T01:07:57.645Z,101494
2016-05-01T01:08:10.114Z,101489
2016-05-01T01:08:22.773Z,101494
2016-05-01T01:08:35.195Z,101486
2016-05-01T01:08:48.258Z,101497
2016-05-01T01:09:00.914Z,101504
2016-05-01T01:09:13.430Z,101489
2016-05-01T01:09:25.807Z,101497
2016-05-01T01:09:38.463Z,101500
2016-05-01T01:09:51.057Z,101492
2016-05-01T01:10:03.354Z,101483
2016-05-01T01:10:15.994Z,101486
2016-05-01T01:10:28.419Z,101497
2016-05-01T01:10:41.091Z,101500
2016-05-01T01:10:53.607Z,101489
2016-05-01T01:11:06.044Z,101497
2016-05-01T01:11:18.653Z,101503
2016-05-01T01:11:31.328Z,101492
2016-05-01T01:24:41.625Z,101483
2016-05-01T01:24:54.063Z,101473
2016-05-01T01:25:06.734Z,101476
2016-05-01T01:25:19.250Z,101479
2016-05-01T01:25:31.815Z,101473
2016-05-01T01:25:44.205Z,101464
2016-05-01T01:25:56.861Z,101473
2016-05-01T01:26:09.502Z,101482
2016-05-01T01:26:21.815Z,101467
2016-05-01T01:26:35.130Z,101473
2016-05-01T01:26:47.724Z,101473
2016-05-01T01:27:00.099Z,101494
2016-05-01T01:27:13.239Z,101474
2016-05-01T01:27:25.883Z,101492
2016-05-01T01:27:38.321Z,101480
2016-05-01T01:27:50.727Z,101480
2016-05-01T01:28:03.258Z,101486
2016-05-01T01:28:16.399Z,101480
2016-05-01T01:28:28.807Z,101497
2016-05-01T01:28:41.448Z,101489
2016-05-01T01:28:54.073Z,101470
2016-05-01T01:29:06.573Z,101494
2016-05-01T01:29:19.041Z,101489
2016-05-01T01:29:31.717Z,101486
2016-05-01T01:29:44.202Z,101485
2016-05-01T01:29:56.623Z,101492
2016-05-01T01:30:09.295Z,101486
2016-05-01T01:30:21.827Z,101479
2016-05-01T01:30:34.454Z,101492
2016-05-01T01:30:47.000Z,101479
2016-05-01T01:30:59.641Z,101489
2016-05-01T01:31:12.250Z,101494
2016-05-01T01:31:24.674Z,101479
2016-05-01T01:31:37.174Z,101497
2016-05-01T01:31:49.956Z,101492
2016-05-01T01:32:02.409Z,101489
2016-05-01T01:32:14.862Z,101479
2016-05-01T01:32:27.521Z,101492
2016-05-01T01:32:39.959Z,101489
2016-05-01T01:32:52.412Z,101476
2016-05-01T01:33:05.068Z,101492
2016-05-01T01:33:17.537Z,101485
2016-05-01T01:33:30.165Z,101488
2016-05-01T01:33:42.618Z,101485
2016-05-01T01:33:55.118Z,101482
2016-05-01T01:34:07.727Z,101479
2016-05-01T01:34:20.180Z,101479
2016-05-01T01:34:32.590Z,101476
2016-05-01T01:34:45.261Z,101485
2016-05-01T01:34:58.433Z,101479
2016-05-01T01:35:12.699Z,101479
2016-05-01T01:35:25.843Z,101485
2016-05-01T01:35:39.639Z,101476
2016-05-01T01:35:52.108Z,101496
2016-05-01T01:36:04.702Z,101482
2016-05-01T01:36:17.155Z,101494
2016-05-01T01:36:29.689Z,101485
2016-05-01T01:36:42.392Z,101485
2016-05-01T01:36:54.752Z,101494
2016-05-01T01:37:07.252Z,101485
2016-05-01T01:37:19.892Z,101479
2016-05-01T01:37:32.315Z,101479
2016-05-01T01:37:44.784Z,101479
2016-05-01T01:37:57.456Z,101485
2016-05-01T01:38:09.878Z,101479
2016-05-01T01:38:22.300Z,101488
2016-05-01T01:38:34.929Z,101479
2016-05-01T01:39:38.962Z,101479
2016-05-01T01:39:51.618Z,101473
2016-05-01T01:40:03.993Z,101482
2016-05-01T01:40:16.493Z,101485
2016-05-01T01:40:29.121Z,101482
2016-05-01T01:40:41.543Z,101491
2016-05-01T01:40:53.871Z,101482
2016-05-01T01:41:06.559Z,101482
2016-05-01T01:41:19.043Z,101491
2016-05-01T01:41:31.390Z,101479
2016-05-01T01:41:44.109Z,101485
2016-05-01T01:41:56.562Z,101488
2016-05-01T01:42:08.952Z,101476
2016-05-01T01:42:21.468Z,101488
2016-05-01T01:42:34.126Z,101488
2016-05-01T01:55:44.443Z,101514
2016-05-01T01:55:56.897Z,101499
2016-05-01T01:56:10.022Z,101502
2016-05-01T01:56:22.662Z,101508
2016-05-01T01:56:35.211Z,101508
2016-05-01T01:56:47.695Z,101511
2016-05-01T01:57:00.336Z,101496
2016-05-01T01:57:12.914Z,101508
2016-05-01T01:57:25.385Z,101502
2016-05-01T01:57:37.838Z,101499
2016-05-01T01:57:50.322Z,101496
2016-05-01T01:58:02.947Z,101523
2016-05-01T01:58:15.479Z,101508
2016-05-01T01:58:27.825Z,101508
2016-05-01T01:58:40.529Z,101499
2016-05-01T01:58:53.122Z,101502
2016-05-01T01:59:05.529Z,101502
2016-05-01T01:59:18.763Z,101496
2016-05-01T01:59:31.360Z,101514
2016-05-01T01:59:43.797Z,101502
2016-05-01T01:59:56.313Z,101508
2016-05-01T02:00:08.922Z,101499
2016-05-01T02:00:21.344Z,101505
2016-05-01T02:00:34.019Z,101502
2016-05-01T02:00:46.488Z,101505
2016-05-01T02:00:58.910Z,101502
2016-05-01T02:01:11.581Z,101514
2016-05-01T02:01:24.083Z,101517
2016-05-01T02:01:36.537Z,101487
2016-05-01T02:01:49.130Z,101502
2016-05-01T02:02:01.740Z,101505
2016-05-01T02:02:14.068Z,101502
2016-05-01T02:02:26.696Z,101520
2016-05-01T02:02:39.352Z,101505
2016-05-01T02:02:51.696Z,101502
2016-05-01T02:03:04.321Z,101502
2016-05-01T02:03:16.883Z,101508
2016-05-01T02:03:29.261Z,101505
2016-05-01T02:03:41.918Z,101508
2016-05-01T02:03:54.511Z,101504
2016-05-01T02:04:06.855Z,101511
2016-05-01T02:04:19.418Z,101505
2016-05-01T02:04:32.685Z,101495
2016-05-01T02:04:45.123Z,101514
2016-05-01T02:04:59.091Z,101508
2016-05-01T02:05:15.435Z,101508
2016-05-01T02:05:28.735Z,101495
2016-05-01T02:05:42.860Z,101501
2016-05-01T02:05:55.313Z,101504
2016-05-01T02:06:07.735Z,101508
2016-05-01T02:06:20.344Z,101504
2016-05-01T02:06:32.784Z,101498
2016-05-01T02:06:45.175Z,101501
2016-05-01T02:06:57.784Z,101498
2016-05-01T02:07:10.393Z,101504
2016-05-01T02:07:22.768Z,101514
2016-05-01T02:07:35.303Z,101504
2016-05-01T02:07:47.881Z,101517
2016-05-01T02:08:00.224Z,101514
2016-05-01T02:08:12.787Z,101504
2016-05-01T02:08:25.243Z,101511
2016-05-01T02:08:37.837Z,101517
2016-05-01T02:08:50.462Z,101507
2016-05-01T02:09:02.868Z,101523
2016-05-01T02:09:15.415Z,101517
2016-05-01T02:09:28.059Z,101514
2016-05-01T02:09:40.496Z,101517
2016-05-01T02:09:53.074Z,101517
2016-05-01T02:10:05.715Z,101520
2016-05-01T02:10:18.184Z,101523
2016-05-01T02:10:30.686Z,101510
2016-05-01T02:10:43.404Z,101514
2016-05-01T02:10:55.920Z,101520
2016-05-01T02:11:08.326Z,101507
2016-05-01T02:11:20.732Z,101507
2016-05-01T02:11:33.377Z,101519
2016-05-01T02:11:45.955Z,101510
2016-05-01T02:11:58.315Z,101510
2016-05-01T02:12:10.940Z,101510
2016-05-01T02:12:23.534Z,101504
2016-05-01T02:12:35.956Z,101526
2016-05-01T02:12:48.566Z,101516
2016-05-01T02:26:54.322Z,101528
2016-05-01T02:27:06.744Z,101528
2016-05-01T02:27:19.416Z,101531
2016-05-01T02:27:31.903Z,101528
2016-05-01T02:27:44.341Z,101528
2016-05-01T02:27:56.966Z,101525
2016-05-01T02:28:09.560Z,101525
2016-05-01T02:28:21.982Z,101522
2016-05-01T02:28:34.578Z,101525
2016-05-01T02:28:47.281Z,101522
2016-05-01T02:28:59.688Z,101519
2016-05-01T02:29:12.266Z,101528
2016-05-01T02:29:24.893Z,101516
2016-05-01T02:29:37.471Z,101516
2016-05-01T02:29:49.893Z,101531
2016-05-01T02:30:02.330Z,101531
2016-05-01T02:30:15.002Z,101528
2016-05-01T02:30:27.474Z,101528
2016-05-01T02:30:39.896Z,101534
2016-05-01T02:30:52.599Z,101528
2016-05-01T02:31:05.161Z,101522
2016-05-01T02:31:17.583Z,101525
2016-05-01T02:31:30.149Z,101531
2016-05-01T02:31:42.680Z,101528
2016-05-01T02:31:55.164Z,101525
2016-05-01T02:32:07.789Z,101528
2016-05-01T02:32:20.211Z,101534
2016-05-01T02:32:32.855Z,101534
2016-05-01T02:32:45.417Z,101534
2016-05-01T02:32:57.855Z,101525
2016-05-01T02:33:10.449Z,101543
2016-05-01T02:33:23.058Z,101528
2016-05-01T02:33:35.482Z,101521
2016-05-01T02:33:48.154Z,101537
2016-05-01T02:34:00.763Z,101531
2016-05-01T02:34:13.232Z,101534
2016-05-01T02:34:25.704Z,101534
2016-05-01T02:34:38.376Z,101525
2016-05-01T02:34:50.829Z,101537
2016-05-01T02:35:05.438Z,101543
2016-05-01T02:35:18.657Z,101531
2016-05-01T02:35:31.816Z,101531
2016-05-01T02:35:45.113Z,101531
2016-05-01T02:35:57.675Z,101531
2016-05-01T02:36:10.144Z,101527
2016-05-01T02:36:22.738Z,101534
2016-05-01T02:36:35.381Z,101534
2016-05-01T02:36:47.724Z,101521
2016-05-01T02:37:00.193Z,101530
2016-05-01T02:37:12.834Z,101524
2016-05-01T02:37:25.165Z,101527
2016-05-01T02:37:37.743Z,101515
2016-05-01T02:37:50.305Z,101536
2016-05-01T02:38:02.712Z,101530
2016-05-01T02:38:15.290Z,101536
2016-05-01T02:38:27.855Z,101527
2016-05-01T02:38:40.293Z,101530
2016-05-01T02:38:52.855Z,101527
2016-05-01T02:39:05.449Z,101536
2016-05-01T02:39:17.840Z,101533
2016-05-01T02:39:30.358Z,101530
2016-05-01T02:39:43.030Z,101527
2016-05-01T02:39:55.405Z,101546
2016-05-01T02:40:07.827Z,101533
2016-05-01T02:40:20.546Z,101527
2016-05-01T02:40:32.970Z,101530
2016-05-01T02:40:45.626Z,101530
2016-05-01T02:40:58.142Z,101530
2016-05-01T02:41:10.595Z,101539
2016-05-01T02:41:23.188Z,101542
2016-05-01T02:41:35.738Z,101533
2016-05-01T02:41:48.129Z,101518
2016-05-01T02:42:00.723Z,101530
2016-05-01T02:42:13.395Z,101533
2016-05-01T02:42:25.804Z,101536
2016-05-01T02:42:38.366Z,101527
2016-05-01T02:42:51.007Z,101536
2016-05-01T02:43:03.444Z,101530
2016-05-01T02:43:16.038Z,101542
2016-05-01T02:43:28.384Z,101533
2016-05-01T02:43:41.040Z,101539
2016-05-01T02:57:51.797Z,101560
2016-05-01T02:58:04.281Z,101545
2016-05-01T02:58:16.641Z,101557
2016-05-01T02:58:29.316Z,101530
2016-05-01T02:58:41.816Z,101545
2016-05-01T02:58:54.269Z,101548
2016-05-01T02:59:06.784Z,101554
2016-05-01T02:59:19.456Z,101548
2016-05-01T02:59:31.974Z,101563
2016-05-01T02:59:44.380Z,101554
2016-05-01T02:59:57.005Z,101557
2016-05-01T03:00:09.568Z,101554
2016-05-01T03:00:22.021Z,101563
2016-05-01T03:00:34.539Z,101557
2016-05-01T03:00:47.227Z,101557
2016-05-01T03:00:59.602Z,101560
2016-05-01T03:01:12.086Z,101554
2016-05-01T03:01:24.711Z,101560
2016-05-01T03:01:37.167Z,101554
2016-05-01T03:01:49.745Z,101566
2016-05-01T03:02:02.324Z,101560
2016-05-01T03:02:14.745Z,101566
2016-05-01T03:02:27.341Z,101557
2016-05-01T03:02:39.951Z,101560
2016-05-01T03:02:52.216Z,101548
2016-05-01T03:03:04.904Z,101563
2016-05-01T03:03:17.544Z,101554
2016-05-01T03:03:29.969Z,101554
2016-05-01T03:03:42.469Z,101557
2016-05-01T03:03:55.141Z,101557
2016-05-01T03:04:07.563Z,101554
2016-05-01T03:04:19.954Z,101563
2016-05-01T03:04:32.518Z,101551
2016-05-01T03:04:45.159Z,101560
2016-05-01T03:04:59.581Z,101560
2016-05-01T03:05:13.846Z,101563
2016-05-01T03:05:28.818Z,101557
2016-05-01T03:05:42.396Z,101560
2016-05-01T03:05:54.912Z,101551
2016-05-01T03:06:07.599Z,101554
2016-05-01T03:06:20.224Z,101557
2016-05-01T03:06:32.680Z,101560
2016-05-01T03:06:45.337Z,101572
2016-05-01T03:06:58.040Z,101560
2016-05-01T03:07:10.524Z,101554
2016-05-01T03:07:23.055Z,101554
2016-05-01T03:07:35.495Z,101560
2016-05-01T03:07:48.182Z,101557
2016-05-01T03:08:00.870Z,101554
2016-05-01T03:08:13.307Z,101560
2016-05-01T03:08:25.967Z,101572
2016-05-01T03:08:38.592Z,101572
2016-05-01T03:08:51.092Z,101560
2016-05-01T03:09:03.560Z,101569
2016-05-01T03:09:17.029Z,101557
2016-05-01T03:09:29.454Z,101563
2016-05-01T03:09:41.938Z,101560
2016-05-01T03:09:54.548Z,101566
2016-05-01T03:10:06.923Z,101560
2016-05-01T03:10:19.595Z,101566
2016-05-01T03:10:32.082Z,101563
2016-05-01T03:10:44.519Z,101545
2016-05-01T03:10:57.113Z,101560
2016-05-01T03:11:09.707Z,101566
2016-05-01T03:11:22.098Z,101569
2016-05-01T03:11:34.632Z,101554
2016-05-01T03:11:47.288Z,101554
2016-05-01T03:11:59.647Z,101566
2016-05-01T03:12:12.163Z,101557
2016-05-01T03:12:24.788Z,101554
2016-05-01T03:12:37.150Z,101563
2016-05-01T03:12:49.807Z,101563
2016-05-01T03:13:02.447Z,101551
2016-05-01T03:13:14.838Z,101563
2016-05-01T03:13:27.433Z,101569
2016-05-01T03:13:40.042Z,101569
2016-05-01T03:13:52.495Z,101569
2016-05-01T03:14:05.073Z,101554
2016-05-01T03:14:17.745Z,101563
2016-05-01T03:14:30.187Z,101563
2016-05-01T03:14:42.702Z,101563
2016-05-01T03:14:55.374Z,101560
2016-05-01T03:29:06.239Z,101566
2016-05-01T03:29:18.880Z,101569
2016-05-01T03:29:31.570Z,101566
2016-05-01T03:29:44.039Z,101566
2016-05-01T03:29:56.664Z,101557
2016-05-01T03:30:09.977Z,101569
2016-05-01T03:30:22.414Z,101566
2016-05-01T03:30:34.870Z,101560
2016-05-01T03:30:47.573Z,101569
2016-05-01T03:31:00.136Z,101566
2016-05-01T03:31:12.542Z,101563
2016-05-01T03:31:25.183Z,101572
2016-05-01T03:31:37.748Z,101562
2016-05-01T03:31:50.358Z,101572
2016-05-01T03:32:02.858Z,101572
2016-05-01T03:32:15.373Z,101569
2016-05-01T03:32:28.078Z,101569
2016-05-01T03:32:40.532Z,101566
2016-05-01T03:32:53.000Z,101566
2016-05-01T03:33:05.641Z,101559
2016-05-01T03:33:18.125Z,101553
2016-05-01T03:33:30.644Z,101575
2016-05-01T03:33:43.316Z,101562
2016-05-01T03:33:55.972Z,101556
2016-05-01T03:34:08.550Z,101565
2016-05-01T03:34:20.941Z,101565
2016-05-01T03:34:33.538Z,101559
2016-05-01T03:34:46.178Z,101565
2016-05-01T03:34:58.819Z,101550
2016-05-01T03:35:11.569Z,101572
2016-05-01T03:35:25.584Z,101569
2016-05-01T03:35:40.665Z,101571
2016-05-01T03:35:53.836Z,101562
2016-05-01T03:36:06.555Z,101556
2016-05-01T03:36:19.024Z,101571
2016-05-01T03:36:31.543Z,101565
2016-05-01T03:36:44.199Z,101562
2016-05-01T03:36:56.699Z,101571
2016-05-01T03:37:09.277Z,101565
2016-05-01T03:37:21.855Z,101565
2016-05-01T03:37:34.296Z,101572
2016-05-01T03:37:46.921Z,101559
2016-05-01T03:37:59.608Z,101575
2016-05-01T03:38:12.139Z,101565
2016-05-01T03:38:24.733Z,101581
2016-05-01T03:38:37.407Z,101565
2016-05-01T03:38:49.829Z,101584
2016-05-01T03:39:02.376Z,101559
2016-05-01T03:39:15.719Z,101581
2016-05-01T03:39:28.269Z,101572
2016-05-01T03:39:40.707Z,101565
2016-05-01T03:39:53.222Z,101568
2016-05-01T03:40:05.847Z,101581
2016-05-01T03:40:18.472Z,101574
2016-05-01T03:40:30.804Z,101568
2016-05-01T03:40:43.491Z,101565
2016-05-01T03:40:56.132Z,101577
2016-05-01T03:41:08.616Z,101565
2016-05-01T03:41:21.272Z,101574
2016-05-01T03:41:33.931Z,101580
2016-05-01T03:41:46.368Z,101574
2016-05-01T03:41:58.931Z,101571
2016-05-01T03:42:11.446Z,101577
2016-05-01T03:42:24.071Z,101574
2016-05-01T03:42:36.730Z,101574
2016-05-01T03:42:49.121Z,101574
2016-05-01T03:43:01.777Z,101577
2016-05-01T03:43:14.449Z,101577
2016-05-01T03:43:26.937Z,101586
2016-05-01T03:43:39.499Z,101568
2016-05-01T03:43:52.202Z,101577
2016-05-01T03:44:04.655Z,101577
2016-05-01T03:44:17.171Z,101583
2016-05-01T03:44:29.892Z,101571
2016-05-01T03:44:42.376Z,101580
2016-05-01T03:44:54.939Z,101580
2016-05-01T03:45:07.501Z,101568
2016-05-01T03:45:19.892Z,101571
2016-05-01T03:45:32.520Z,101580
2016-05-01T03:45:45.176Z,101583
2016-05-01T03:45:57.535Z,101580
2016-05-01T03:59:11.883Z,101589
2016-05-01T03:59:28.683Z,101568
2016-05-01T03:59:46.198Z,101583
2016-05-01T04:00:02.401Z,101583
2016-05-01T04:00:18.526Z,101580
2016-05-01T04:00:33.935Z,101586
2016-05-01T04:00:47.028Z,101577
2016-05-01T04:01:01.075Z,101586
2016-05-01T04:01:18.919Z,101580
2016-05-01T04:01:36.641Z,101586
2016-05-01T04:01:51.438Z,101577
2016-05-01T04:02:09.375Z,101595
2016-05-01T04:02:23.281Z,101580
2016-05-01T04:02:38.550Z,101583
2016-05-01T04:02:54.300Z,101589
2016-05-01T04:03:09.988Z,101586
2016-05-01T04:03:24.566Z,101598
2016-05-01T04:03:38.880Z,101580
2016-05-01T04:03:52.615Z,101574
2016-05-01T04:04:17.927Z,101592
2016-05-01T04:04:32.571Z,101583
2016-05-01T04:04:45.071Z,101598
2016-05-01T04:04:59.008Z,101595
2016-05-01T04:05:19.352Z,101598
2016-05-01T04:05:33.026Z,101595
2016-05-01T04:05:46.416Z,101595
2016-05-01T04:05:58.838Z,101592
2016-05-01T04:06:11.963Z,101601
2016-05-01T04:06:24.541Z,101592
2016-05-01T04:06:37.201Z,101595
2016-05-01T04:06:49.935Z,101601
2016-05-01T04:07:04.669Z,101589
2016-05-01T04:07:20.701Z,101592
2016-05-01T04:07:42.579Z,101586
2016-05-01T04:07:57.360Z,101580
2016-05-01T04:08:11.672Z,101586
2016-05-01T04:08:25.735Z,101589
2016-05-01T04:08:39.379Z,101589
2016-05-01T04:08:53.519Z,101595
2016-05-01T04:09:08.941Z,101607
2016-05-01T04:09:22.894Z,101601
2016-05-01T04:09:36.677Z,101589
2016-05-01T04:09:50.318Z,101601
2016-05-01T04:10:04.802Z,101607
2016-05-01T04:10:19.771Z,101604
2016-05-01T04:10:33.274Z,101595
2016-05-01T04:10:46.852Z,101589
2016-05-01T04:11:01.759Z,101592
2016-05-01T04:11:14.821Z,101586
2016-05-01T04:11:31.418Z,101586
2016-05-01T04:11:45.043Z,101592
2016-05-01T04:11:59.824Z,101598
2016-05-01T04:12:13.324Z,101595
2016-05-01T04:12:26.777Z,101589
2016-05-01T04:12:47.358Z,101601
2016-05-01T04:13:03.671Z,101604
2016-05-01T04:13:23.311Z,101601
2016-05-01T04:13:38.705Z,101612
2016-05-01T04:13:54.096Z,101604
2016-05-01T04:14:10.955Z,101598
2016-05-01T04:14:23.408Z,101598
2016-05-01T04:14:36.113Z,101604
2016-05-01T04:14:48.785Z,101595
2016-05-01T04:15:01.895Z,101595
2016-05-01T04:15:14.551Z,101604
2016-05-01T04:15:27.148Z,101595
2016-05-01T04:15:39.648Z,101598
2016-05-01T04:15:52.210Z,101601
2016-05-01T04:16:07.710Z,101598
2016-05-01T04:16:24.398Z,101607
2016-05-01T04:16:42.243Z,101607
2016-05-01T04:16:58.165Z,101598
2016-05-01T04:17:11.384Z,101598
2016-05-01T04:17:25.400Z,101607
2016-05-01T04:17:39.371Z,101598
2016-05-01T04:17:52.512Z,101601
2016-05-01T04:18:06.418Z,101598
2016-05-01T04:18:21.043Z,101598
2016-05-01T04:18:36.312Z,101598
2016-05-01T04:18:50.281Z,101601
2016-05-01T04:19:03.765Z,101589
2016-05-01T04:19:17.327Z,101612
2016-05-01T04:29:27.326Z,101604
2016-05-01T04:29:41.342Z,101618
2016-05-01T04:29:54.342Z,101607
2016-05-01T04:30:59.203Z,101615
2016-05-01T04:31:12.813Z,101615
2016-05-01T04:31:28.050Z,101621
2016-05-01T04:31:41.487Z,101607
2016-05-01T04:31:54.972Z,101624
2016-05-01T04:32:09.128Z,101612
2016-05-01T04:32:23.081Z,101615
2016-05-01T04:32:36.740Z,101615
2016-05-01T04:32:50.678Z,101627
2016-05-01T04:33:04.490Z,101624
2016-05-01T04:33:17.631Z,101630
2016-05-01T04:33:32.539Z,101618
2016-05-01T04:33:46.024Z,101618
2016-05-01T04:33:59.274Z,101639
2016-05-01T04:34:13.071Z,101630
2016-05-01T04:34:26.758Z,101624
2016-05-01T04:34:39.949Z,101615
2016-05-01T04:34:54.667Z,101612
2016-05-01T04:35:10.652Z,101621
2016-05-01T04:35:23.933Z,101615
2016-05-01T04:35:38.280Z,101618
2016-05-01T04:35:51.764Z,101612
2016-05-01T04:36:06.561Z,101615